Detall de PIREP

Printer-friendly versionPDF version

[2014/01/26 07:13:00]
Flight IATA:CT2105
Pilot Number:041
Company ICAO:CAT
Aircraft Type:A320/E
PAX:49
Departing Airport: LEBB
Destination Airport: LEVC
Alternate Airport:LEBL
Online: VATSIM
Route:PPN G23 GRAUS A34 SAURA
Flight Level:FL190
No Slew and time accel
No pause
Crash detect
Detect pilot in Cockpit between each 30 and 45 minutes
07:13 Zero fuel Weight: 38957 Lbs, Fuel Weight: 3807 Lbs
07:13 VATSIM:LEBB 260630Z 00000KT 3000 BR FEW002 BKN030 11/11 Q1026 NOSIG
07:13 VATSIM:LEVC 260630Z 24009KT CAVOK 11/04 Q1022 NOSIG
07:13 VOICE CATALONIAN
07:13 Parking Brakes off
07:27 Take-off
07:27 Take off Weight: 42681 Lbs
07:27 Wind: 000º @ 000 Knots Heading: 097º
07:27 POS N43º 18´ 06´´ W002º 55´ 09´´
07:27 Gear Up: 139 Knots
07:27 Flaps:1 at 139 Knots
07:27 Flaps:0 at 163 Knots
07:42 Wind:309º@013 Knots Heading: 144º Ground Speed: 260 Knots Altitude 14363 ft
07:57 Wind:309º@020 Knots Heading: 115º Ground Speed: 297 Knots Altitude 18254 ft
08:07 TOC
08:07 Fuel Weight: 2527 Lb
08:11 TOD
08:11 Fuel Weight: 2393 Lb
08:12 Wind:317º@032 Knots Heading: 196º Ground Speed: 308 Knots Altitude 18838 ft
08:27 Wind:207º@006 Knots Heading: 196º Ground Speed: 247 Knots Altitude 6843 ft
08:42 Wind:261º@005 Knots Heading: 176º Ground Speed: 239 Knots Altitude 3503 ft
08:46 Flaps:1 at 177 Knots
08:46 Gear Down: 154 Knots
08:46 Flaps:2 at 153 Knots
08:50 TouchDown:Rate -75 ft/min Speed: 86 Knots
08:51 Flaps:0 at 80 Knots
08:51 VATSIM:LEVC 260800Z 26005KT CAVOK 10/05 Q1022 NOSIG
08:51 Land
08:51 Wind:259º@005 Knots
08:51 Heading: 299º
08:51 Flight Duration: 01:24
08:51 Landing Weight: 40492 Lbs
08:51 POS N39º 29´ 16´´ W000º 28´ 40´´
08:55 Parking brakes on
08:55 Block to Block Duration: 01:42
08:55 Final Fuel: 1499 Lbls
08:55 Spent Fuel: 2308 Lbls
08:55 Flight Length: 294 NM
08:55 TOD Land Length: 157 NM

Exportar CSV

Powered by Drupal - Modified by Danger4k